sensor_id;sensor_type;location;lat;lon;timestamp;P1;durP1;ratioP1;P2;durP2;ratioP2
21593;SDS011;10959;51.328;7.322;2022-10-16T07:39:48;1.50;;;1.40;;
21593;SDS011;10959;51.328;7.322;2022-10-16T07:42:14;4.70;;;1.20;;
21593;SDS011;10959;51.328;7.322;2022-10-16T07:44:41;2.80;;;1.50;;
21593;SDS011;10959;51.328;7.322;2022-10-16T07:47:07;3.03;;;1.40;;
21593;SDS011;10959;51.328;7.322;2022-10-16T07:49:34;1.77;;;1.67;;
21593;SDS011;10959;51.328;7.322;2022-10-16T07:52:00;2.03;;;1.33;;
21593;SDS011;10959;51.328;7.322;2022-10-16T07:54:27;2.43;;;1.27;;
21593;SDS011;10959;51.328;7.322;2022-10-16T07:56:55;1.67;;;1.23;;
21593;SDS011;10959;51.328;7.322;2022-10-16T07:59:21;1.33;;;1.20;;
21593;SDS011;10959;51.328;7.322;2022-10-16T08:01:48;1.47;;;1.17;;
21593;SDS011;10959;51.328;7.322;2022-10-16T08:04:15;1.20;;;1.10;;
21593;SDS011;10959;51.328;7.322;2022-10-16T08:06:41;2.07;;;1.20;;
21593;SDS011;10959;51.328;7.322;2022-10-16T08:09:08;1.77;;;1.07;;
21593;SDS011;10959;51.328;7.322;2022-10-16T08:11:35;2.20;;;1.00;;
21593;SDS011;10959;51.328;7.322;2022-10-16T08:14:03;1.40;;;1.00;;
21593;SDS011;10959;51.328;7.322;2022-10-16T08:16:29;1.00;;;0.90;;
21593;SDS011;10959;51.328;7.322;2022-10-16T08:18:56;1.37;;;1.10;;
21593;SDS011;10959;51.328;7.322;2022-10-16T08:21:22;1.00;;;0.80;;
21593;SDS011;10959;51.328;7.322;2022-10-16T08:23:49;2.07;;;1.10;;
21593;SDS011;10959;51.328;7.322;2022-10-16T08:26:16;3.43;;;1.00;;
21593;SDS011;10959;51.328;7.322;2022-10-16T08:28:44;1.00;;;0.90;;
21593;SDS011;10959;51.328;7.322;2022-10-16T08:31:13;3.73;;;1.10;;
21593;SDS011;10959;51.328;7.322;2022-10-16T08:33:42;1.40;;;1.07;;
21593;SDS011;10959;51.328;7.322;2022-10-16T08:36:11;1.63;;;1.00;;
21593;SDS011;10959;51.328;7.322;2022-10-16T08:38:38;1.43;;;1.03;;
21593;SDS011;10959;51.328;7.322;2022-10-16T08:41:13;2.60;;;0.93;;
21593;SDS011;10959;51.328;7.322;2022-10-16T08:44:00;1.40;;;0.70;;
21593;SDS011;10959;51.328;7.322;2022-10-16T08:46:46;1.67;;;0.90;;
21593;SDS011;10959;51.328;7.322;2022-10-16T08:49:21;1.10;;;1.00;;
21593;SDS011;10959;51.328;7.322;2022-10-16T08:51:49;1.40;;;0.80;;
21593;SDS011;10959;51.328;7.322;2022-10-16T08:54:22;3.60;;;1.13;;
21593;SDS011;10959;51.328;7.322;2022-10-16T08:56:55;1.00;;;0.90;;
21593;SDS011;10959;51.328;7.322;2022-10-16T08:59:22;2.90;;;0.90;;
21593;SDS011;10959;51.328;7.322;2022-10-16T09:01:50;1.53;;;0.90;;
21593;SDS011;10959;51.328;7.322;2022-10-16T09:04:37;1.33;;;0.80;;
21593;SDS011;10959;51.328;7.322;2022-10-16T09:07:15;1.53;;;0.90;;
21593;SDS011;10959;51.328;7.322;2022-10-16T09:09:54;3.03;;;0.80;;
21593;SDS011;10959;51.328;7.322;2022-10-16T09:12:31;1.37;;;0.87;;
21593;SDS011;10959;51.328;7.322;2022-10-16T09:15:03;2.00;;;0.70;;
21593;SDS011;10959;51.328;7.322;2022-10-16T09:17:45;1.80;;;0.60;;
21593;SDS011;10959;51.328;7.322;2022-10-16T09:20:19;2.80;;;0.70;;
21593;SDS011;10959;51.328;7.322;2022-10-16T09:22:55;3.00;;;0.77;;
21593;SDS011;10959;51.328;7.322;2022-10-16T09:25:36;1.53;;;0.70;;
21593;SDS011;10959;51.328;7.322;2022-10-16T09:28:05;1.77;;;0.70;;
21593;SDS011;10959;51.328;7.322;2022-10-16T09:30:34;2.43;;;0.80;;
21593;SDS011;10959;51.328;7.322;2022-10-16T09:33:02;1.63;;;0.60;;
21593;SDS011;10959;51.328;7.322;2022-10-16T09:35:31;1.50;;;0.60;;
21593;SDS011;10959;51.328;7.322;2022-10-16T09:38:01;1.67;;;0.80;;
21593;SDS011;10959;51.328;7.322;2022-10-16T09:40:28;2.17;;;0.70;;
21593;SDS011;10959;51.328;7.322;2022-10-16T09:43:01;1.63;;;0.67;;
21593;SDS011;10959;51.328;7.322;2022-10-16T09:45:32;1.30;;;0.67;;
21593;SDS011;10959;51.328;7.322;2022-10-16T09:48:02;2.07;;;0.60;;
21593;SDS011;10959;51.328;7.322;2022-10-16T09:50:37;1.17;;;0.73;;
21593;SDS011;10959;51.328;7.322;2022-10-16T09:53:05;2.37;;;0.80;;
21593;SDS011;10959;51.328;7.322;2022-10-16T09:55:34;1.13;;;0.60;;
21593;SDS011;10959;51.328;7.322;2022-10-16T09:58:01;0.90;;;0.63;;
21593;SDS011;10959;51.328;7.322;2022-10-16T10:00:27;2.27;;;0.90;;
21593;SDS011;10959;51.328;7.322;2022-10-16T10:02:55;0.57;;;0.50;;
21593;SDS011;10959;51.328;7.322;2022-10-16T10:05:23;1.43;;;0.70;;
21593;SDS011;10959;51.328;7.322;2022-10-16T10:07:54;1.50;;;0.60;;
21593;SDS011;10959;51.328;7.322;2022-10-16T10:10:23;2.35;;;0.60;;
21593;SDS011;10959;51.328;7.322;2022-10-16T10:12:51;2.97;;;0.77;;
21593;SDS011;10959;51.328;7.322;2022-10-16T10:15:18;1.97;;;0.73;;
21593;SDS011;10959;51.328;7.322;2022-10-16T10:17:47;1.38;;;0.40;;
21593;SDS011;10959;51.328;7.322;2022-10-16T10:20:23;0.95;;;0.45;;
21593;SDS011;10959;51.328;7.322;2022-10-16T10:22:52;1.23;;;0.43;;
21593;SDS011;10959;51.328;7.322;2022-10-16T10:25:26;1.05;;;0.60;;
21593;SDS011;10959;51.328;7.322;2022-10-16T10:28:16;1.48;;;0.70;;
21593;SDS011;10959;51.328;7.322;2022-10-16T10:31:03;1.80;;;0.45;;
21593;SDS011;10959;51.328;7.322;2022-10-16T10:33:38;3.80;;;0.57;;
21593;SDS011;10959;51.328;7.322;2022-10-16T10:36:19;1.40;;;0.50;;
21593;SDS011;10959;51.328;7.322;2022-10-16T10:38:54;1.70;;;0.60;;
21593;SDS011;10959;51.328;7.322;2022-10-16T10:41:39;2.22;;;0.68;;
21593;SDS011;10959;51.328;7.322;2022-10-16T10:44:30;1.15;;;0.60;;
21593;SDS011;10959;51.328;7.322;2022-10-16T10:47:11;1.65;;;0.45;;
21593;SDS011;10959;51.328;7.322;2022-10-16T10:49:52;1.63;;;0.50;;
21593;SDS011;10959;51.328;7.322;2022-10-16T10:55:20;0.35;;;0.30;;
21593;SDS011;10959;51.328;7.322;2022-10-16T10:57:56;2.53;;;0.73;;
21593;SDS011;10959;51.328;7.322;2022-10-16T11:00:38;1.77;;;0.73;;
21593;SDS011;10959;51.328;7.322;2022-10-16T11:03:17;2.50;;;0.70;;
21593;SDS011;10959;51.328;7.322;2022-10-16T11:05:56;0.95;;;0.50;;
21593;SDS011;10959;51.328;7.322;2022-10-16T11:08:28;0.88;;;0.50;;
21593;SDS011;10959;51.328;7.322;2022-10-16T11:11:00;1.30;;;0.50;;
21593;SDS011;10959;51.328;7.322;2022-10-16T11:13:31;2.05;;;0.45;;
21593;SDS011;10959;51.328;7.322;2022-10-16T11:16:03;3.65;;;0.70;;
21593;SDS011;10959;51.328;7.322;2022-10-16T11:18:42;1.67;;;0.63;;
21593;SDS011;10959;51.328;7.322;2022-10-16T11:21:14;0.82;;;0.50;;
21593;SDS011;10959;51.328;7.322;2022-10-16T11:23:48;4.30;;;0.85;;
21593;SDS011;10959;51.328;7.322;2022-10-16T11:26:20;0.95;;;0.52;;
21593;SDS011;10959;51.328;7.322;2022-10-16T11:28:50;0.65;;;0.40;;
21593;SDS011;10959;51.328;7.322;2022-10-16T11:31:22;1.92;;;0.75;;
21593;SDS011;10959;51.328;7.322;2022-10-16T11:33:57;1.45;;;0.70;;
21593;SDS011;10959;51.328;7.322;2022-10-16T11:36:31;0.82;;;0.50;;
21593;SDS011;10959;51.328;7.322;2022-10-16T11:39:08;0.82;;;0.50;;
21593;SDS011;10959;51.328;7.322;2022-10-16T11:41:44;2.65;;;0.68;;
21593;SDS011;10959;51.328;7.322;2022-10-16T11:44:16;2.45;;;0.38;;
21593;SDS011;10959;51.328;7.322;2022-10-16T11:46:57;0.90;;;0.40;;
21593;SDS011;10959;51.328;7.322;2022-10-16T11:49:33;0.60;;;0.30;;
21593;SDS011;10959;51.328;7.322;2022-10-16T11:52:03;1.85;;;0.40;;
21593;SDS011;10959;51.328;7.322;2022-10-16T11:54:41;1.13;;;0.40;;
21593;SDS011;10959;51.328;7.322;2022-10-16T11:57:17;2.75;;;0.47;;
21593;SDS011;10959;51.328;7.322;2022-10-16T11:59:50;0.75;;;0.43;;
21593;SDS011;10959;51.328;7.322;2022-10-16T12:02:27;2.10;;;0.38;;
21593;SDS011;10959;51.328;7.322;2022-10-16T12:05:05;2.70;;;0.40;;
21593;SDS011;10959;51.328;7.322;2022-10-16T12:07:41;1.83;;;0.45;;
21593;SDS011;10959;51.328;7.322;2022-10-16T12:10:20;2.47;;;0.40;;
21593;SDS011;10959;51.328;7.322;2022-10-16T12:12:49;1.63;;;0.32;;
21593;SDS011;10959;51.328;7.322;2022-10-16T12:15:20;3.15;;;0.45;;
21593;SDS011;10959;51.328;7.322;2022-10-16T12:17:49;2.88;;;0.40;;
21593;SDS011;10959;51.328;7.322;2022-10-16T12:20:21;1.60;;;0.60;;
21593;SDS011;10959;51.328;7.322;2022-10-16T12:22:51;2.67;;;0.50;;
21593;SDS011;10959;51.328;7.322;2022-10-16T12:25:22;1.10;;;0.30;;
21593;SDS011;10959;51.328;7.322;2022-10-16T12:27:56;2.10;;;0.40;;
21593;SDS011;10959;51.328;7.322;2022-10-16T12:30:26;2.05;;;0.60;;
21593;SDS011;10959;51.328;7.322;2022-10-16T12:32:54;1.02;;;0.30;;
21593;SDS011;10959;51.328;7.322;2022-10-16T12:35:23;1.10;;;0.50;;
21593;SDS011;10959;51.328;7.322;2022-10-16T12:37:51;0.75;;;0.25;;
21593;SDS011;10959;51.328;7.322;2022-10-16T12:40:26;1.42;;;0.50;;
21593;SDS011;10959;51.328;7.322;2022-10-16T12:42:55;3.17;;;0.40;;
21593;SDS011;10959;51.328;7.322;2022-10-16T12:45:26;3.10;;;0.50;;
21593;SDS011;10959;51.328;7.322;2022-10-16T12:48:02;1.08;;;0.30;;
21593;SDS011;10959;51.328;7.322;2022-10-16T12:50:44;2.35;;;0.43;;
21593;SDS011;10959;51.328;7.322;2022-10-16T12:53:17;2.60;;;0.50;;
21593;SDS011;10959;51.328;7.322;2022-10-16T12:55:50;1.08;;;0.40;;
21593;SDS011;10959;51.328;7.322;2022-10-16T13:01:19;1.73;;;0.30;;
21593;SDS011;10959;51.328;7.322;2022-10-16T13:04:04;1.80;;;0.43;;
21593;SDS011;10959;51.328;7.322;2022-10-16T13:06:51;1.48;;;0.38;;
21593;SDS011;10959;51.328;7.322;2022-10-16T13:09:29;1.15;;;0.50;;
21593;SDS011;10959;51.328;7.322;2022-10-16T13:12:12;1.02;;;0.43;;
21593;SDS011;10959;51.328;7.322;2022-10-16T13:14:57;1.10;;;0.50;;
21593;SDS011;10959;51.328;7.322;2022-10-16T13:17:43;1.42;;;0.40;;
21593;SDS011;10959;51.328;7.322;2022-10-16T13:20:17;1.48;;;0.50;;
21593;SDS011;10959;51.328;7.322;2022-10-16T13:22:50;2.67;;;0.60;;
21593;SDS011;10959;51.328;7.322;2022-10-16T13:25:26;1.17;;;0.40;;
21593;SDS011;10959;51.328;7.322;2022-10-16T13:28:03;1.58;;;0.50;;
21593;SDS011;10959;51.328;7.322;2022-10-16T13:30:31;1.77;;;0.60;;
21593;SDS011;10959;51.328;7.322;2022-10-16T13:33:04;2.05;;;0.40;;
21593;SDS011;10959;51.328;7.322;2022-10-16T13:35:34;1.48;;;0.50;;
21593;SDS011;10959;51.328;7.322;2022-10-16T13:38:05;0.82;;;0.38;;
21593;SDS011;10959;51.328;7.322;2022-10-16T13:40:47;1.80;;;0.50;;
21593;SDS011;10959;51.328;7.322;2022-10-16T13:43:18;1.20;;;0.45;;
21593;SDS011;10959;51.328;7.322;2022-10-16T13:45:57;1.80;;;0.43;;
21593;SDS011;10959;51.328;7.322;2022-10-16T13:48:26;1.65;;;0.50;;
21593;SDS011;10959;51.328;7.322;2022-10-16T13:51:00;1.85;;;0.35;;
21593;SDS011;10959;51.328;7.322;2022-10-16T13:53:29;1.42;;;0.65;;
21593;SDS011;10959;51.328;7.322;2022-10-16T13:55:57;1.77;;;0.40;;
21593;SDS011;10959;51.328;7.322;2022-10-16T13:58:26;1.85;;;0.50;;
21593;SDS011;10959;51.328;7.322;2022-10-16T14:00:53;3.05;;;0.50;;
21593;SDS011;10959;51.328;7.322;2022-10-16T14:03:22;1.33;;;0.45;;
21593;SDS011;10959;51.328;7.322;2022-10-16T14:05:51;0.77;;;0.35;;
21593;SDS011;10959;51.328;7.322;2022-10-16T14:08:19;1.20;;;0.43;;
21593;SDS011;10959;51.328;7.322;2022-10-16T14:10:47;1.70;;;0.45;;
21593;SDS011;10959;51.328;7.322;2022-10-16T14:13:17;1.33;;;0.47;;
21593;SDS011;10959;51.328;7.322;2022-10-16T14:15:48;2.85;;;0.50;;
21593;SDS011;10959;51.328;7.322;2022-10-16T14:18:18;2.07;;;0.57;;
21593;SDS011;10959;51.328;7.322;2022-10-16T14:20:47;0.95;;;0.50;;
21593;SDS011;10959;51.328;7.322;2022-10-16T14:23:22;1.13;;;0.35;;
21593;SDS011;10959;51.328;7.322;2022-10-16T14:26:05;0.50;;;0.30;;
21593;SDS011;10959;51.328;7.322;2022-10-16T14:28:32;1.75;;;0.70;;
21593;SDS011;10959;51.328;7.322;2022-10-16T14:31:00;1.88;;;0.70;;
21593;SDS011;10959;51.328;7.322;2022-10-16T14:33:31;0.57;;;0.38;;
21593;SDS011;10959;51.328;7.322;2022-10-16T14:36:01;1.73;;;0.50;;
21593;SDS011;10959;51.328;7.322;2022-10-16T14:38:31;1.02;;;0.40;;
21593;SDS011;10959;51.328;7.322;2022-10-16T14:40:58;1.75;;;0.35;;
21593;SDS011;10959;51.328;7.322;2022-10-16T14:43:28;1.42;;;0.35;;
21593;SDS011;10959;51.328;7.322;2022-10-16T14:45:59;1.10;;;0.50;;
21593;SDS011;10959;51.328;7.322;2022-10-16T14:48:28;1.10;;;0.43;;
21593;SDS011;10959;51.328;7.322;2022-10-16T14:50:55;1.13;;;0.50;;
21593;SDS011;10959;51.328;7.322;2022-10-16T14:53:22;1.17;;;0.30;;
21593;SDS011;10959;51.328;7.322;2022-10-16T14:55:48;0.57;;;0.40;;
21593;SDS011;10959;51.328;7.322;2022-10-16T14:58:15;0.23;;;0.20;;
21593;SDS011;10959;51.328;7.322;2022-10-16T15:00:43;1.73;;;0.65;;
21593;SDS011;10959;51.328;7.322;2022-10-16T15:03:11;5.50;;;0.70;;
21593;SDS011;10959;51.328;7.322;2022-10-16T15:05:38;3.13;;;0.40;;
21593;SDS011;10959;51.328;7.322;2022-10-16T15:08:05;0.77;;;0.40;;
21593;SDS011;10959;51.328;7.322;2022-10-16T15:10:33;0.93;;;0.40;;
21593;SDS011;10959;51.328;7.322;2022-10-16T15:13:04;3.17;;;0.90;;
21593;SDS011;10959;51.328;7.322;2022-10-16T15:15:33;1.63;;;1.20;;
21593;SDS011;10959;51.328;7.322;2022-10-16T15:18:01;1.50;;;0.83;;
21593;SDS011;10959;51.328;7.322;2022-10-16T15:20:31;2.63;;;0.60;;
21593;SDS011;10959;51.328;7.322;2022-10-16T15:22:59;2.00;;;0.60;;
21593;SDS011;10959;51.328;7.322;2022-10-16T15:25:31;0.60;;;0.40;;
21593;SDS011;10959;51.328;7.322;2022-10-16T15:28:05;1.23;;;0.47;;
21593;SDS011;10959;51.328;7.322;2022-10-16T15:30:33;1.00;;;0.50;;
21593;SDS011;10959;51.328;7.322;2022-10-16T15:33:00;1.50;;;0.63;;
21593;SDS011;10959;51.328;7.322;2022-10-16T15:35:27;2.70;;;0.47;;
21593;SDS011;10959;51.328;7.322;2022-10-16T15:37:55;1.10;;;0.50;;
21593;SDS011;10959;51.328;7.322;2022-10-16T15:40:22;1.50;;;0.40;;
21593;SDS011;10959;51.328;7.322;2022-10-16T15:42:49;0.98;;;0.50;;
21593;SDS011;10959;51.328;7.322;2022-10-16T15:45:15;2.87;;;0.63;;
21593;SDS011;10959;51.328;7.322;2022-10-16T15:47:42;1.63;;;0.63;;
21593;SDS011;10959;51.328;7.322;2022-10-16T15:50:09;1.87;;;0.80;;
21593;SDS011;10959;51.328;7.322;2022-10-16T15:52:37;1.63;;;0.40;;
21593;SDS011;10959;51.328;7.322;2022-10-16T15:55:06;1.00;;;0.50;;
21593;SDS011;10959;51.328;7.322;2022-10-16T15:57:34;0.73;;;0.57;;
21593;SDS011;10959;51.328;7.322;2022-10-16T16:00:03;0.83;;;0.60;;
21593;SDS011;10959;51.328;7.322;2022-10-16T16:02:31;2.23;;;0.70;;
21593;SDS011;10959;51.328;7.322;2022-10-16T16:04:58;0.67;;;0.60;;
21593;SDS011;10959;51.328;7.322;2022-10-16T16:07:24;2.37;;;1.00;;
21593;SDS011;10959;51.328;7.322;2022-10-16T16:09:52;2.57;;;0.80;;
21593;SDS011;10959;51.328;7.322;2022-10-16T16:12:20;2.50;;;0.70;;
21593;SDS011;10959;51.328;7.322;2022-10-16T16:14:47;2.30;;;0.80;;
21593;SDS011;10959;51.328;7.322;2022-10-16T16:17:14;1.57;;;0.90;;
21593;SDS011;10959;51.328;7.322;2022-10-16T16:19:40;1.80;;;1.30;;
21593;SDS011;10959;51.328;7.322;2022-10-16T16:22:07;2.47;;;1.30;;
21593;SDS011;10959;51.328;7.322;2022-10-16T16:24:34;2.40;;;0.80;;
21593;SDS011;10959;51.328;7.322;2022-10-16T16:27:00;1.63;;;1.30;;
21593;SDS011;10959;51.328;7.322;2022-10-16T16:29:28;1.50;;;1.23;;
21593;SDS011;10959;51.328;7.322;2022-10-16T16:31:55;2.27;;;1.00;;
21593;SDS011;10959;51.328;7.322;2022-10-16T16:34:24;2.17;;;0.83;;
21593;SDS011;10959;51.328;7.322;2022-10-16T16:36:51;0.83;;;0.80;;
21593;SDS011;10959;51.328;7.322;2022-10-16T16:39:17;4.90;;;1.07;;
21593;SDS011;10959;51.328;7.322;2022-10-16T16:41:44;1.67;;;0.90;;
21593;SDS011;10959;51.328;7.322;2022-10-16T16:44:12;4.03;;;1.10;;
21593;SDS011;10959;51.328;7.322;2022-10-16T16:46:40;1.43;;;0.73;;
21593;SDS011;10959;51.328;7.322;2022-10-16T16:49:09;1.87;;;0.57;;
21593;SDS011;10959;51.328;7.322;2022-10-16T16:51:36;1.47;;;0.90;;
21593;SDS011;10959;51.328;7.322;2022-10-16T16:54:04;2.90;;;0.90;;
21593;SDS011;10959;51.328;7.322;2022-10-16T16:56:31;1.23;;;0.73;;
21593;SDS011;10959;51.328;7.322;2022-10-16T16:58:58;1.77;;;0.90;;
21593;SDS011;10959;51.328;7.322;2022-10-16T17:01:26;1.67;;;1.10;;
21593;SDS011;10959;51.328;7.322;2022-10-16T17:03:55;2.57;;;0.90;;
21593;SDS011;10959;51.328;7.322;2022-10-16T17:06:24;2.50;;;1.10;;
21593;SDS011;10959;51.328;7.322;2022-10-16T17:08:52;2.17;;;1.00;;
21593;SDS011;10959;51.328;7.322;2022-10-16T17:11:20;2.97;;;1.40;;
21593;SDS011;10959;51.328;7.322;2022-10-16T17:13:48;1.57;;;1.23;;
21593;SDS011;10959;51.328;7.322;2022-10-16T17:16:17;1.70;;;1.40;;
21593;SDS011;10959;51.328;7.322;2022-10-16T17:18:44;7.80;;;4.13;;
21593;SDS011;10959;51.328;7.322;2022-10-16T17:21:12;4.97;;;3.43;;
21593;SDS011;10959;51.328;7.322;2022-10-16T17:23:38;3.43;;;2.50;;
21593;SDS011;10959;51.328;7.322;2022-10-16T17:26:05;1.57;;;1.20;;
21593;SDS011;10959;51.328;7.322;2022-10-16T17:28:32;2.77;;;1.00;;
21593;SDS011;10959;51.328;7.322;2022-10-16T17:31:06;3.20;;;1.30;;
21593;SDS011;10959;51.328;7.322;2022-10-16T17:33:33;2.20;;;0.90;;
21593;SDS011;10959;51.328;7.322;2022-10-16T17:36:00;1.40;;;1.10;;
21593;SDS011;10959;51.328;7.322;2022-10-16T17:38:28;1.17;;;0.80;;
21593;SDS011;10959;51.328;7.322;2022-10-16T17:40:54;1.77;;;1.00;;
21593;SDS011;10959;51.328;7.322;2022-10-16T17:43:21;1.10;;;1.00;;
21593;SDS011;10959;51.328;7.322;2022-10-16T17:45:47;3.33;;;1.17;;
21593;SDS011;10959;51.328;7.322;2022-10-16T17:48:14;2.47;;;0.80;;
21593;SDS011;10959;51.328;7.322;2022-10-16T17:50:46;2.00;;;0.70;;
21593;SDS011;10959;51.328;7.322;2022-10-16T17:53:14;2.03;;;0.80;;
21593;SDS011;10959;51.328;7.322;2022-10-16T17:55:42;1.93;;;0.90;;
21593;SDS011;10959;51.328;7.322;2022-10-16T17:58:09;2.83;;;0.90;;
21593;SDS011;10959;51.328;7.322;2022-10-16T18:00:35;1.07;;;0.80;;
21593;SDS011;10959;51.328;7.322;2022-10-16T18:03:02;1.37;;;0.87;;
21593;SDS011;10959;51.328;7.322;2022-10-16T18:05:29;1.90;;;0.70;;
21593;SDS011;10959;51.328;7.322;2022-10-16T18:07:56;1.93;;;0.73;;
21593;SDS011;10959;51.328;7.322;2022-10-16T18:10:23;1.50;;;0.70;;
21593;SDS011;10959;51.328;7.322;2022-10-16T18:12:54;0.73;;;0.70;;
21593;SDS011;10959;51.328;7.322;2022-10-16T18:15:21;1.77;;;0.73;;
21593;SDS011;10959;51.328;7.322;2022-10-16T18:17:48;0.67;;;0.57;;
21593;SDS011;10959;51.328;7.322;2022-10-16T18:20:14;1.10;;;1.00;;
21593;SDS011;10959;51.328;7.322;2022-10-16T18:22:41;1.20;;;1.10;;
21593;SDS011;10959;51.328;7.322;2022-10-16T18:25:07;4.17;;;1.30;;
21593;SDS011;10959;51.328;7.322;2022-10-16T18:27:34;1.97;;;1.10;;
21593;SDS011;10959;51.328;7.322;2022-10-16T18:30:02;1.70;;;1.07;;
21593;SDS011;10959;51.328;7.322;2022-10-16T18:32:28;1.10;;;0.90;;
21593;SDS011;10959;51.328;7.322;2022-10-16T18:34:55;1.30;;;1.20;;
21593;SDS011;10959;51.328;7.322;2022-10-16T18:37:21;1.47;;;1.10;;
21593;SDS011;10959;51.328;7.322;2022-10-16T18:39:48;1.43;;;1.03;;
21593;SDS011;10959;51.328;7.322;2022-10-16T18:42:15;3.57;;;2.93;;
21593;SDS011;10959;51.328;7.322;2022-10-16T18:44:41;2.97;;;1.97;;
21593;SDS011;10959;51.328;7.322;2022-10-16T18:47:09;3.07;;;1.43;;
21593;SDS011;10959;51.328;7.322;2022-10-16T18:49:36;5.13;;;1.57;;
21593;SDS011;10959;51.328;7.322;2022-10-16T18:52:02;2.00;;;0.90;;
21593;SDS011;10959;51.328;7.322;2022-10-16T18:54:29;2.50;;;0.90;;
21593;SDS011;10959;51.328;7.322;2022-10-16T18:56:55;0.83;;;0.60;;
21593;SDS011;10959;51.328;7.322;2022-10-16T18:59:22;1.23;;;0.73;;
21593;SDS011;10959;51.328;7.322;2022-10-16T19:01:50;1.30;;;0.97;;
21593;SDS011;10959;51.328;7.322;2022-10-16T19:04:18;1.37;;;0.80;;
21593;SDS011;10959;51.328;7.322;2022-10-16T19:06:46;1.67;;;0.80;;
21593;SDS011;10959;51.328;7.322;2022-10-16T19:09:16;3.93;;;0.63;;
21593;SDS011;10959;51.328;7.322;2022-10-16T19:11:45;1.07;;;0.70;;
21593;SDS011;10959;51.328;7.322;2022-10-16T19:14:11;1.97;;;0.63;;
21593;SDS011;10959;51.328;7.322;2022-10-16T19:16:39;1.93;;;0.70;;
21593;SDS011;10959;51.328;7.322;2022-10-16T19:19:08;1.23;;;0.93;;
21593;SDS011;10959;51.328;7.322;2022-10-16T19:21:38;1.10;;;1.00;;
21593;SDS011;10959;51.328;7.322;2022-10-16T19:24:05;1.73;;;0.70;;
21593;SDS011;10959;51.328;7.322;2022-10-16T19:26:33;0.93;;;0.87;;
21593;SDS011;10959;51.328;7.322;2022-10-16T19:29:01;0.80;;;0.70;;
21593;SDS011;10959;51.328;7.322;2022-10-16T19:31:29;0.87;;;0.87;;
21593;SDS011;10959;51.328;7.322;2022-10-16T19:33:57;1.60;;;1.00;;
21593;SDS011;10959;51.328;7.322;2022-10-16T19:36:27;1.87;;;1.17;;
21593;SDS011;10959;51.328;7.322;2022-10-16T19:38:57;2.57;;;0.90;;
21593;SDS011;10959;51.328;7.322;2022-10-16T19:41:25;1.20;;;1.00;;
21593;SDS011;10959;51.328;7.322;2022-10-16T19:43:52;1.43;;;1.17;;
21593;SDS011;10959;51.328;7.322;2022-10-16T19:46:19;1.80;;;0.80;;
21593;SDS011;10959;51.328;7.322;2022-10-16T19:48:47;5.73;;;4.60;;
21593;SDS011;10959;51.328;7.322;2022-10-16T19:51:15;7.43;;;4.30;;
21593;SDS011;10959;51.328;7.322;2022-10-16T19:53:42;2.43;;;2.00;;
21593;SDS011;10959;51.328;7.322;2022-10-16T19:56:14;2.67;;;1.77;;
21593;SDS011;10959;51.328;7.322;2022-10-16T19:58:42;2.13;;;1.20;;
21593;SDS011;10959;51.328;7.322;2022-10-16T20:01:10;1.37;;;1.00;;
21593;SDS011;10959;51.328;7.322;2022-10-16T20:03:36;2.90;;;2.40;;
21593;SDS011;10959;51.328;7.322;2022-10-16T20:06:04;1.90;;;1.70;;
21593;SDS011;10959;51.328;7.322;2022-10-16T20:08:32;1.33;;;1.23;;
21593;SDS011;10959;51.328;7.322;2022-10-16T20:10:59;2.60;;;1.30;;
21593;SDS011;10959;51.328;7.322;2022-10-16T20:13:28;1.40;;;1.20;;
21593;SDS011;10959;51.328;7.322;2022-10-16T20:15:55;1.20;;;1.10;;
21593;SDS011;10959;51.328;7.322;2022-10-16T20:18:22;1.63;;;1.10;;
21593;SDS011;10959;51.328;7.322;2022-10-16T20:20:48;4.33;;;1.47;;
21593;SDS011;10959;51.328;7.322;2022-10-16T20:23:16;1.90;;;1.57;;
21593;SDS011;10959;51.328;7.322;2022-10-16T20:25:43;1.30;;;1.20;;
21593;SDS011;10959;51.328;7.322;2022-10-16T20:28:11;1.63;;;1.43;;
21593;SDS011;10959;51.328;7.322;2022-10-16T20:30:42;2.20;;;2.00;;
21593;SDS011;10959;51.328;7.322;2022-10-16T20:33:10;2.40;;;1.60;;
21593;SDS011;10959;51.328;7.322;2022-10-16T20:35:37;3.00;;;1.87;;
21593;SDS011;10959;51.328;7.322;2022-10-16T20:38:05;2.33;;;1.93;;
21593;SDS011;10959;51.328;7.322;2022-10-16T20:40:32;1.30;;;1.20;;
21593;SDS011;10959;51.328;7.322;2022-10-16T20:42:59;1.80;;;1.53;;
21593;SDS011;10959;51.328;7.322;2022-10-16T20:45:26;1.77;;;1.67;;
21593;SDS011;10959;51.328;7.322;2022-10-16T20:47:54;3.50;;;1.83;;
21593;SDS011;10959;51.328;7.322;2022-10-16T20:50:20;2.33;;;1.93;;
21593;SDS011;10959;51.328;7.322;2022-10-16T20:52:47;2.00;;;1.90;;
21593;SDS011;10959;51.328;7.322;2022-10-16T20:55:13;2.93;;;2.03;;
21593;SDS011;10959;51.328;7.322;2022-10-16T20:57:41;2.07;;;1.93;;
21593;SDS011;10959;51.328;7.322;2022-10-16T21:00:08;2.73;;;2.27;;
21593;SDS011;10959;51.328;7.322;2022-10-16T21:02:35;2.50;;;2.30;;
21593;SDS011;10959;51.328;7.322;2022-10-16T21:05:03;3.00;;;2.00;;
21593;SDS011;10959;51.328;7.322;2022-10-16T21:07:30;3.97;;;2.63;;
21593;SDS011;10959;51.328;7.322;2022-10-16T21:09:57;2.50;;;2.30;;
21593;SDS011;10959;51.328;7.322;2022-10-16T21:12:24;3.17;;;2.80;;
21593;SDS011;10959;51.328;7.322;2022-10-16T21:14:51;2.33;;;2.13;;
21593;SDS011;10959;51.328;7.322;2022-10-16T21:17:17;3.50;;;2.60;;
21593;SDS011;10959;51.328;7.322;2022-10-16T21:19:44;2.67;;;2.47;;
21593;SDS011;10959;51.328;7.322;2022-10-16T21:22:12;3.77;;;2.60;;
21593;SDS011;10959;51.328;7.322;2022-10-16T21:24:39;5.90;;;2.83;;
21593;SDS011;10959;51.328;7.322;2022-10-16T21:27:05;4.73;;;2.63;;
21593;SDS011;10959;51.328;7.322;2022-10-16T21:29:32;4.57;;;3.30;;
21593;SDS011;10959;51.328;7.322;2022-10-16T21:31:58;5.03;;;2.60;;
21593;SDS011;10959;51.328;7.322;2022-10-16T21:34:25;3.13;;;2.77;;
21593;SDS011;10959;51.328;7.322;2022-10-16T21:36:51;3.43;;;2.77;;
21593;SDS011;10959;51.328;7.322;2022-10-16T21:39:19;4.67;;;3.03;;
21593;SDS011;10959;51.328;7.322;2022-10-16T21:41:47;3.43;;;3.00;;
21593;SDS011;10959;51.328;7.322;2022-10-16T21:44:15;3.33;;;2.63;;
21593;SDS011;10959;51.328;7.322;2022-10-16T21:46:44;3.80;;;3.20;;
21593;SDS011;10959;51.328;7.322;2022-10-16T21:49:12;5.13;;;3.13;;
21593;SDS011;10959;51.328;7.322;2022-10-16T21:51:40;3.53;;;3.23;;
21593;SDS011;10959;51.328;7.322;2022-10-16T21:54:09;3.30;;;3.00;;
21593;SDS011;10959;51.328;7.322;2022-10-16T21:56:38;4.67;;;3.20;;
21593;SDS011;10959;51.328;7.322;2022-10-16T21:59:05;4.27;;;3.30;;
21593;SDS011;10959;51.328;7.322;2022-10-16T22:01:32;3.90;;;3.27;;
21593;SDS011;10959;51.328;7.322;2022-10-16T22:03:59;3.77;;;3.17;;
21593;SDS011;10959;51.328;7.322;2022-10-16T22:06:26;3.80;;;3.30;;
21593;SDS011;10959;51.328;7.322;2022-10-16T22:08:53;3.63;;;3.33;;
21593;SDS011;10959;51.328;7.322;2022-10-16T22:11:24;4.10;;;3.70;;
21593;SDS011;10959;51.328;7.322;2022-10-16T22:13:53;3.87;;;3.23;;
21593;SDS011;10959;51.328;7.322;2022-10-16T22:16:21;5.20;;;4.10;;
21593;SDS011;10959;51.328;7.322;2022-10-16T22:18:50;5.03;;;3.80;;
21593;SDS011;10959;51.328;7.322;2022-10-16T22:21:17;4.00;;;3.43;;
21593;SDS011;10959;51.328;7.322;2022-10-16T22:23:43;6.23;;;4.00;;
21593;SDS011;10959;51.328;7.322;2022-10-16T22:26:10;5.93;;;4.33;;
21593;SDS011;10959;51.328;7.322;2022-10-16T22:28:38;3.90;;;3.60;;
21593;SDS011;10959;51.328;7.322;2022-10-16T22:31:07;4.47;;;3.60;;
21593;SDS011;10959;51.328;7.322;2022-10-16T22:33:35;5.27;;;4.00;;
21593;SDS011;10959;51.328;7.322;2022-10-16T22:36:03;3.57;;;3.20;;
21593;SDS011;10959;51.328;7.322;2022-10-16T22:38:32;6.70;;;4.53;;
21593;SDS011;10959;51.328;7.322;2022-10-16T22:41:00;4.27;;;3.80;;
21593;SDS011;10959;51.328;7.322;2022-10-16T22:43:27;4.40;;;3.77;;
21593;SDS011;10959;51.328;7.322;2022-10-16T22:45:54;4.97;;;3.57;;
21593;SDS011;10959;51.328;7.322;2022-10-16T22:48:22;3.87;;;3.57;;